Time;durP1;ratioP1;P1;durP2;ratioP2;P2;SDS_P1;SDS_P2;PMS_P1;PMS_P2;Temp;Humidity;BMP_temperature;BMP_pressure;BME280_temperature;BME280_humidity;BME280_pressure;Samples;Min_cycle;Max_cycle;Signal;HPM_P1;HPM_P2
2022/06/01 00:02:28;;;;;;;4.72;4.53;;;;;;;;;;10456055;28;21494;-73
2022/06/01 00:07:29;;;;;;;5.63;5.32;;;;;;;;;;10437529;28;20330;-74
2022/06/01 00:12:32;;;;;;;5.68;5.32;;;;;;;;;;10403789;28;20206;-73
2022/06/01 00:17:33;;;;;;;5.82;5.43;;;;;;;;;;10456539;28;20271;-74
2022/06/01 00:22:36;;;;;;;8.95;6.10;;;;;;;;;;10447220;28;20265;-74
2022/06/01 00:27:37;;;;;;;6.80;6.28;;;;;;;;;;10449281;28;20206;-74
2022/06/01 00:32:39;;;;;;;7.40;6.70;;;;;;;;;;10424296;28;20862;-74
2022/06/01 00:37:40;;;;;;;6.38;5.90;;;;;;;;;;10457116;28;20248;-73
2022/06/01 00:42:42;;;;;;;7.00;6.43;;;;;;;;;;10457139;28;20198;-73
2022/06/01 00:47:43;;;;;;;7.32;6.82;;;;;;;;;;10421048;28;20205;-73
2022/06/01 00:52:50;;;;;;;6.95;6.43;;;;;;;;;;10444752;28;20657;-74
2022/06/01 00:57:53;;;;;;;7.40;6.68;;;;;;;;;;10417379;28;20755;-74
2022/06/01 01:02:56;;;;;;;8.10;6.93;;;;;;;;;;10424084;28;20221;-73
2022/06/01 01:07:58;;;;;;;7.43;6.85;;;;;;;;;;10450230;28;20225;-73
2022/06/01 01:13:02;;;;;;;6.70;6.40;;;;;;;;;;10454288;28;20466;-74
2022/06/01 01:18:06;;;;;;;7.70;7.00;;;;;;;;;;10440568;28;21013;-74
2022/06/01 01:23:17;;;;;;;8.73;8.02;;;;;;;;;;10424096;28;20721;-73
2022/06/01 01:28:18;;;;;;;7.93;7.38;;;;;;;;;;10394855;28;20238;-74
2022/06/01 01:33:23;;;;;;;7.28;6.57;;;;;;;;;;10445325;28;20702;-74
2022/06/01 01:38:43;;;;;;;7.05;6.55;;;;;;;;;;10443926;28;20363;-74
2022/06/01 01:43:57;;;;;;;7.30;6.70;;;;;;;;;;10460639;28;20324;-74
2022/06/01 01:48:58;;;;;;;8.23;7.65;;;;;;;;;;10457746;28;20646;-74
2022/06/01 01:54:00;;;;;;;6.18;5.78;;;;;;;;;;10461545;28;20209;-74
2022/06/01 01:59:20;;;;;;;8.70;7.90;;;;;;;;;;10425686;28;20204;-73
2022/06/01 02:15:20;;;;;;;8.77;8.00;;;;;;;;;;10395554;28;20203;-74
2022/06/01 02:20:28;;;;;;;9.85;8.93;;;;;;;;;;10419126;28;20203;-74
2022/06/01 02:25:29;;;;;;;8.73;8.13;;;;;;;;;;10434496;28;20244;-74
2022/06/01 02:30:33;;;;;;;8.65;7.97;;;;;;;;;;10438860;28;20221;-74
2022/06/01 02:35:36;;;;;;;9.75;8.77;;;;;;;;;;10454706;28;20241;-74
2022/06/01 02:40:38;;;;;;;10.55;9.43;;;;;;;;;;10463330;28;20195;-74
2022/06/01 02:45:40;;;;;;;9.23;8.45;;;;;;;;;;10447192;28;20194;-75
2022/06/01 02:50:41;;;;;;;9.63;8.80;;;;;;;;;;10451543;28;20214;-73
2022/06/01 02:55:42;;;;;;;8.20;7.57;;;;;;;;;;10460311;28;20218;-73
2022/06/01 03:00:43;;;;;;;13.77;8.55;;;;;;;;;;10451356;28;20226;-74
2022/06/01 03:05:44;;;;;;;8.52;7.80;;;;;;;;;;10459528;28;20233;-73
2022/06/01 03:10:45;;;;;;;9.88;8.63;;;;;;;;;;10452047;28;20209;-75
2022/06/01 03:15:46;;;;;;;10.55;9.55;;;;;;;;;;10457968;28;20217;-74
2022/06/01 03:20:47;;;;;;;9.30;8.43;;;;;;;;;;10446065;28;20222;-74
2022/06/01 03:25:48;;;;;;;10.10;9.07;;;;;;;;;;10420039;28;20190;-73
2022/06/01 03:30:50;;;;;;;9.38;8.32;;;;;;;;;;10456559;28;20226;-73
2022/06/01 03:35:52;;;;;;;8.50;7.80;;;;;;;;;;10437947;28;20218;-73
2022/06/01 03:40:53;;;;;;;9.65;8.65;;;;;;;;;;10451129;28;20257;-72
2022/06/01 03:45:58;;;;;;;8.13;7.60;;;;;;;;;;10434002;28;20198;-73
2022/06/01 03:51:00;;;;;;;9.00;8.30;;;;;;;;;;10448213;28;20207;-71
2022/06/01 03:56:02;;;;;;;8.82;8.15;;;;;;;;;;10407509;28;20215;-73
2022/06/01 04:01:07;;;;;;;8.40;7.70;;;;;;;;;;10426826;28;20218;-74
2022/06/01 04:06:08;;;;;;;6.80;6.30;;;;;;;;;;10435039;28;20221;-72
2022/06/01 04:11:09;;;;;;;9.00;8.15;;;;;;;;;;10423721;28;20575;-73
2022/06/01 04:16:11;;;;;;;6.75;6.38;;;;;;;;;;10453458;28;20207;-72
2022/06/01 04:21:12;;;;;;;7.05;6.60;;;;;;;;;;10444904;28;20759;-75
2022/06/01 04:26:16;;;;;;;10.27;7.20;;;;;;;;;;10424181;28;20257;-75
2022/06/01 04:31:17;;;;;;;6.85;6.47;;;;;;;;;;10425072;28;20220;-75
2022/06/01 04:36:18;;;;;;;6.45;6.15;;;;;;;;;;10414428;28;20214;-75
2022/06/01 04:41:19;;;;;;;5.80;5.35;;;;;;;;;;10433227;28;20197;-75
2022/06/01 04:46:20;;;;;;;6.28;5.97;;;;;;;;;;10423771;28;20206;-76
2022/06/01 04:51:21;;;;;;;6.35;6.03;;;;;;;;;;10421873;28;20213;-76
2022/06/01 04:56:22;;;;;;;6.20;5.70;;;;;;;;;;10452158;28;20216;-75
2022/06/01 05:01:23;;;;;;;4.75;4.50;;;;;;;;;;10413136;28;20241;-76
2022/06/01 05:06:24;;;;;;;6.30;5.90;;;;;;;;;;10421870;28;20330;-78
2022/06/01 05:11:25;;;;;;;6.65;6.25;;;;;;;;;;10411043;28;20348;-78
2022/06/01 05:16:27;;;;;;;7.40;6.80;;;;;;;;;;10410715;28;20639;-78
2022/06/01 05:21:28;;;;;;;7.00;6.38;;;;;;;;;;10455406;28;20230;-79
2022/06/01 05:26:29;;;;;;;6.65;6.25;;;;;;;;;;10439893;28;20202;-78
2022/06/01 05:31:30;;;;;;;6.10;5.78;;;;;;;;;;10442498;28;20284;-79
2022/06/01 05:36:31;;;;;;;4.78;4.55;;;;;;;;;;10440375;28;20224;-78
2022/06/01 05:41:32;;;;;;;6.80;6.40;;;;;;;;;;10461387;28;20198;-78
2022/06/01 05:46:35;;;;;;;6.90;6.50;;;;;;;;;;10446711;28;20198;-78
2022/06/01 05:51:36;;;;;;;6.00;5.75;;;;;;;;;;10460738;28;20206;-78
2022/06/01 05:56:37;;;;;;;6.80;6.30;;;;;;;;;;10423850;28;20214;-78
2022/06/01 06:01:38;;;;;;;6.45;6.07;;;;;;;;;;10439447;28;20226;-77
2022/06/01 06:06:39;;;;;;;5.47;5.03;;;;;;;;;;10461311;28;20245;-78
2022/06/01 06:11:40;;;;;;;6.28;5.75;;;;;;;;;;10431769;28;20217;-77
2022/06/01 06:16:43;;;;;;;5.15;4.85;;;;;;;;;;10441136;28;20259;-77
2022/06/01 06:21:45;;;;;;;4.47;4.30;;;;;;;;;;10433491;28;20194;-77
2022/06/01 06:26:46;;;;;;;4.63;4.43;;;;;;;;;;10457037;28;20202;-77
2022/06/01 06:31:47;;;;;;;5.05;4.75;;;;;;;;;;10466307;28;20218;-76
2022/06/01 06:36:48;;;;;;;5.15;4.95;;;;;;;;;;10457778;28;20206;-76
2022/06/01 06:41:49;;;;;;;5.07;4.88;;;;;;;;;;10460674;28;20194;-76
2022/06/01 06:46:50;;;;;;;4.60;4.30;;;;;;;;;;10466625;28;20203;-76
2022/06/01 06:51:52;;;;;;;4.15;3.85;;;;;;;;;;10465293;28;20244;-76
2022/06/01 06:56:54;;;;;;;4.03;3.83;;;;;;;;;;10452262;28;20217;-76
2022/06/01 07:01:55;;;;;;;4.13;3.92;;;;;;;;;;10469066;28;20206;-75
2022/06/01 07:06:56;;;;;;;4.32;4.13;;;;;;;;;;10443684;28;20226;-75
2022/06/01 07:11:57;;;;;;;3.63;3.47;;;;;;;;;;10442083;28;20202;-75
2022/06/01 07:17:02;;;;;;;3.55;3.35;;;;;;;;;;10446752;28;20206;-75
2022/06/01 07:22:03;;;;;;;3.30;3.10;;;;;;;;;;10435823;28;20199;-76
2022/06/01 07:27:04;;;;;;;3.13;2.92;;;;;;;;;;10444692;28;20205;-75
2022/06/01 07:32:05;;;;;;;3.20;3.10;;;;;;;;;;10464152;28;20231;-75
2022/06/01 07:47:46;;;;;;;3.03;2.92;;;;;;;;;;10458474;28;20206;-75
2022/06/01 07:52:47;;;;;;;2.90;2.80;;;;;;;;;;10441488;28;20596;-75
2022/06/01 07:57:48;;;;;;;3.08;2.85;;;;;;;;;;10441553;28;20217;-75
2022/06/01 08:02:49;;;;;;;2.47;2.38;;;;;;;;;;10457054;28;20240;-75
2022/06/01 08:07:50;;;;;;;2.17;2.08;;;;;;;;;;10462382;28;20593;-75
2022/06/01 08:13:07;;;;;;;2.25;2.25;;;;;;;;;;10445549;28;20297;-75
2022/06/01 08:18:08;;;;;;;1.73;1.73;;;;;;;;;;10459297;28;20777;-75
2022/06/01 08:23:10;;;;;;;1.52;1.52;;;;;;;;;;10454373;28;20194;-75
2022/06/01 08:28:11;;;;;;;2.10;1.95;;;;;;;;;;10434886;28;20204;-75
2022/06/01 08:33:15;;;;;;;1.45;1.45;;;;;;;;;;10460302;28;20218;-75
2022/06/01 08:38:16;;;;;;;1.48;1.48;;;;;;;;;;10462816;28;20206;-75
2022/06/01 08:43:19;;;;;;;1.60;1.50;;;;;;;;;;10448994;28;20260;-76
2022/06/01 08:48:24;;;;;;;1.80;1.70;;;;;;;;;;10440622;28;20360;-76
2022/06/01 08:53:25;;;;;;;1.75;1.75;;;;;;;;;;10442643;28;20826;-76
2022/06/01 08:58:36;;;;;;;2.35;2.20;;;;;;;;;;10443093;28;20331;-76
2022/06/01 09:03:52;;;;;;;1.77;1.77;;;;;;;;;;10437336;28;20215;-76
2022/06/01 09:08:53;;;;;;;1.85;1.83;;;;;;;;;;10451123;28;20229;-77
2022/06/01 09:14:13;;;;;;;1.73;1.63;;;;;;;;;;10462131;28;20241;-76
2022/06/01 09:19:17;;;;;;;1.92;1.80;;;;;;;;;;10461894;28;20217;-77
2022/06/01 09:24:28;;;;;;;2.00;1.90;;;;;;;;;;10462104;28;20221;-76
2022/06/01 09:29:33;;;;;;;1.88;1.88;;;;;;;;;;10465166;28;20319;-76
2022/06/01 09:34:50;;;;;;;2.22;2.13;;;;;;;;;;10443854;28;20304;-77
2022/06/01 09:39:56;;;;;;;2.38;2.22;;;;;;;;;;10446173;28;20212;-75
2022/06/01 09:44:59;;;;;;;2.58;2.08;;;;;;;;;;10444788;28;20217;-75
2022/06/01 09:50:00;;;;;;;2.88;1.70;;;;;;;;;;10464817;28;20242;-76
2022/06/01 09:55:10;;;;;;;1.95;1.85;;;;;;;;;;10461314;28;20213;-75
2022/06/01 10:06:27;;;;;;;2.25;2.25;;;;;;;;;;10335435;28;20241;-75
2022/06/01 10:11:40;;;;;;;2.40;2.30;;;;;;;;;;10430757;28;20922;-76
2022/06/01 10:16:44;;;;;;;1.60;1.60;;;;;;;;;;10444252;28;21023;-75
2022/06/01 10:21:50;;;;;;;1.80;0.63;;;;;;;;;;10443436;28;20211;-75
2022/06/01 10:26:59;;;;;;;0.35;0.30;;;;;;;;;;10443133;28;20613;-76
2022/06/01 10:32:04;;;;;;;0.25;0.25;;;;;;;;;;10466617;28;20233;-74
2022/06/01 10:37:29;;;;;;;0.35;0.20;;;;;;;;;;10458213;28;20211;-73
2022/06/01 10:48:10;;;;;;;0.25;0.25;;;;;;;;;;10465164;28;20855;-75
2022/06/01 10:53:31;;;;;;;0.32;0.20;;;;;;;;;;10451077;28;20286;-74
2022/06/01 10:58:32;;;;;;;0.40;0.40;;;;;;;;;;10440905;28;20218;-75
2022/06/01 11:03:52;;;;;;;0.50;0.50;;;;;;;;;;10456984;28;20256;-75
2022/06/01 11:09:02;;;;;;;1.05;0.30;;;;;;;;;;10455135;28;20226;-75
2022/06/01 11:14:11;;;;;;;0.40;0.40;;;;;;;;;;10459632;28;20197;-74
2022/06/01 11:19:12;;;;;;;1.00;0.55;;;;;;;;;;10448087;28;20214;-75
2022/06/01 11:24:25;;;;;;;0.60;0.60;;;;;;;;;;10438592;28;20236;-75
2022/06/01 11:29:36;;;;;;;0.93;0.93;;;;;;;;;;10455817;28;20334;-75
2022/06/01 11:34:52;;;;;;;0.70;0.70;;;;;;;;;;10439523;28;20825;-75
2022/06/01 11:39:59;;;;;;;1.38;0.60;;;;;;;;;;10456448;28;20203;-75
2022/06/01 11:45:07;;;;;;;0.80;0.80;;;;;;;;;;10459283;28;20198;-74
2022/06/01 11:50:20;;;;;;;1.17;0.50;;;;;;;;;;10467683;28;20757;-75
2022/06/01 11:55:36;;;;;;;0.50;0.50;;;;;;;;;;10454340;28;20370;-74
2022/06/01 12:00:43;;;;;;;0.80;0.80;;;;;;;;;;10413390;28;21033;-75
2022/06/01 12:06:17;;;;;;;1.30;0.70;;;;;;;;;;10459987;28;20230;-75
2022/06/01 12:11:43;;;;;;;0.70;0.70;;;;;;;;;;10410015;28;20211;-74
2022/06/01 12:16:44;;;;;;;0.50;0.50;;;;;;;;;;10435687;28;20271;-74
2022/06/01 12:21:46;;;;;;;1.00;0.70;;;;;;;;;;10452190;28;20198;-75
2022/06/01 12:32:26;;;;;;;2.15;1.15;;;;;;;;;;10461264;28;20218;-76
2022/06/01 12:37:37;;;;;;;1.17;1.17;;;;;;;;;;10428382;28;20210;-77
2022/06/01 12:42:53;;;;;;;1.90;1.00;;;;;;;;;;10445120;28;20240;-76
2022/06/01 12:48:02;;;;;;;2.72;1.10;;;;;;;;;;10429035;28;20220;-76
2022/06/01 12:53:11;;;;;;;1.65;0.90;;;;;;;;;;10455927;28;20281;-77
2022/06/01 12:58:15;;;;;;;1.30;1.20;;;;;;;;;;10462981;28;20206;-76
2022/06/01 13:03:16;;;;;;;1.67;1.02;;;;;;;;;;10428350;28;20295;-77
2022/06/01 13:08:22;;;;;;;2.85;0.80;;;;;;;;;;10430159;28;20241;-77
2022/06/01 13:13:29;;;;;;;1.48;0.77;;;;;;;;;;10461971;28;20277;-76
2022/06/01 13:18:32;;;;;;;0.80;0.80;;;;;;;;;;10462196;28;20214;-77
2022/06/01 13:23:39;;;;;;;1.00;1.00;;;;;;;;;;10459198;28;20210;-77
2022/06/01 13:28:40;;;;;;;0.50;0.50;;;;;;;;;;10425111;28;20780;-77
2022/06/01 13:33:45;;;;;;;0.60;0.60;;;;;;;;;;10461046;28;20284;-77
2022/06/01 13:38:49;;;;;;;0.50;0.50;;;;;;;;;;10451092;28;20213;-77
2022/06/01 13:43:51;;;;;;;0.60;0.60;;;;;;;;;;10453710;28;20213;-76
2022/06/01 13:48:55;;;;;;;0.57;0.50;;;;;;;;;;10470093;28;20264;-76
2022/06/01 13:53:56;;;;;;;0.50;0.50;;;;;;;;;;10448355;28;20282;-76
2022/06/01 13:59:02;;;;;;;0.40;0.40;;;;;;;;;;10470217;28;20221;-76
2022/06/01 14:04:12;;;;;;;1.95;0.60;;;;;;;;;;10467212;28;20222;-75
2022/06/01 14:09:14;;;;;;;0.60;0.60;;;;;;;;;;10444797;28;20237;-76
2022/06/01 14:14:22;;;;;;;0.70;0.70;;;;;;;;;;10452293;28;20881;-77
2022/06/01 14:19:23;;;;;;;0.70;0.70;;;;;;;;;;10439856;28;20590;-76
2022/06/01 14:24:24;;;;;;;0.95;0.95;;;;;;;;;;10450798;28;20191;-76
2022/06/01 14:29:25;;;;;;;1.60;1.20;;;;;;;;;;10451541;28;20218;-75
2022/06/01 14:34:28;;;;;;;1.00;1.00;;;;;;;;;;10451272;28;20488;-77
2022/06/01 14:39:29;;;;;;;0.70;0.70;;;;;;;;;;10460111;28;20276;-77
2022/06/01 14:44:30;;;;;;;1.65;0.50;;;;;;;;;;10463447;28;20198;-76
2022/06/01 14:49:32;;;;;;;0.95;0.40;;;;;;;;;;10462649;28;20205;-76
2022/06/01 14:54:35;;;;;;;0.45;0.45;;;;;;;;;;10436693;28;20225;-76
2022/06/01 14:59:37;;;;;;;2.63;0.40;;;;;;;;;;10462487;28;20218;-76
2022/06/01 15:04:39;;;;;;;0.70;0.70;;;;;;;;;;10449314;28;20218;-76
2022/06/01 15:09:40;;;;;;;0.50;0.50;;;;;;;;;;10398379;28;20763;-77
2022/06/01 15:14:41;;;;;;;0.57;0.57;;;;;;;;;;10399184;28;20227;-77
2022/06/01 15:19:44;;;;;;;6.18;0.70;;;;;;;;;;10425415;28;20202;-77
2022/06/01 15:24:45;;;;;;;0.50;0.50;;;;;;;;;;10409891;28;20586;-76
2022/06/01 15:40:26;;;;;;;1.25;0.98;;;;;;;;;;10426454;28;20730;-77
2022/06/01 15:45:32;;;;;;;0.70;0.70;;;;;;;;;;10407325;28;20278;-76
2022/06/01 15:50:35;;;;;;;0.80;0.80;;;;;;;;;;10406650;28;20199;-77
2022/06/01 15:55:37;;;;;;;0.60;0.60;;;;;;;;;;10410037;28;20235;-78
2022/06/01 16:00:40;;;;;;;1.23;1.23;;;;;;;;;;10402958;28;20273;-76
2022/06/01 16:05:41;;;;;;;1.20;1.20;;;;;;;;;;10409016;28;20230;-76
2022/06/01 16:10:42;;;;;;;1.77;0.90;;;;;;;;;;10424783;28;20211;-76
2022/06/01 16:15:48;;;;;;;0.80;0.80;;;;;;;;;;10416211;28;20366;-77
2022/06/01 16:20:50;;;;;;;0.90;0.90;;;;;;;;;;10427464;28;20206;-77
2022/06/01 16:25:51;;;;;;;0.77;0.77;;;;;;;;;;10394375;28;20297;-77
2022/06/01 16:30:52;;;;;;;0.70;0.70;;;;;;;;;;10425221;28;20684;-77
2022/06/01 16:35:54;;;;;;;1.30;0.65;;;;;;;;;;10407549;28;20267;-80
2022/06/01 16:40:56;;;;;;;0.80;0.80;;;;;;;;;;10431479;28;20224;-78
2022/06/01 16:45:58;;;;;;;2.08;0.50;;;;;;;;;;10416489;28;20202;-76
2022/06/01 16:50:59;;;;;;;0.50;0.50;;;;;;;;;;10420106;28;20732;-76
2022/06/01 16:56:03;;;;;;;0.95;0.70;;;;;;;;;;10420632;28;20261;-77
2022/06/01 17:01:05;;;;;;;1.10;1.00;;;;;;;;;;10427752;28;20341;-76
2022/06/01 17:06:07;;;;;;;1.00;1.00;;;;;;;;;;10435898;28;20230;-76
2022/06/01 17:11:08;;;;;;;0.88;0.88;;;;;;;;;;10421898;28;20633;-76
2022/06/01 17:16:10;;;;;;;0.70;0.70;;;;;;;;;;10430172;28;20211;-77
2022/06/01 17:21:12;;;;;;;0.95;0.55;;;;;;;;;;10426404;28;20201;-77
2022/06/01 17:26:13;;;;;;;0.30;0.30;;;;;;;;;;10416902;28;20436;-77
2022/06/01 17:31:17;;;;;;;0.50;0.50;;;;;;;;;;10434442;28;20325;-77
2022/06/01 17:36:18;;;;;;;0.60;0.60;;;;;;;;;;10423543;28;20214;-76
2022/06/01 17:41:19;;;;;;;0.50;0.50;;;;;;;;;;10428581;28;20429;-77
2022/06/01 17:46:20;;;;;;;2.53;0.50;;;;;;;;;;10437924;28;20210;-77
2022/06/01 17:51:22;;;;;;;0.30;0.30;;;;;;;;;;10434170;28;20206;-76
2022/06/01 17:56:28;;;;;;;0.40;0.40;;;;;;;;;;10429822;28;20202;-77
2022/06/01 18:01:30;;;;;;;0.55;0.55;;;;;;;;;;10419631;28;20203;-76
2022/06/01 18:06:31;;;;;;;0.50;0.50;;;;;;;;;;10437287;28;20249;-76
2022/06/01 18:11:33;;;;;;;1.08;0.30;;;;;;;;;;10443789;28;20198;-76
2022/06/01 18:16:37;;;;;;;0.30;0.30;;;;;;;;;;10421297;28;20252;-77
2022/06/01 18:21:38;;;;;;;0.40;0.40;;;;;;;;;;10428860;28;20288;-76
2022/06/01 18:26:39;;;;;;;4.70;0.40;;;;;;;;;;10431921;28;21324;-77
2022/06/01 18:31:40;;;;;;;0.35;0.35;;;;;;;;;;10431058;28;20287;-77
2022/06/01 18:36:41;;;;;;;0.40;0.30;;;;;;;;;;10452063;28;20225;-77
2022/06/01 18:41:46;;;;;;;0.63;0.63;;;;;;;;;;10446340;28;20198;-77
2022/06/01 18:46:50;;;;;;;0.30;0.30;;;;;;;;;;10455972;28;20220;-76
2022/06/01 18:51:51;;;;;;;1.15;0.50;;;;;;;;;;10465218;28;20606;-76
2022/06/01 18:56:52;;;;;;;0.40;0.40;;;;;;;;;;10461553;28;20205;-76
2022/06/01 19:01:53;;;;;;;0.40;0.40;;;;;;;;;;10464785;28;20232;-74
2022/06/01 19:06:56;;;;;;;0.57;0.57;;;;;;;;;;10447774;28;20245;-73
2022/06/01 19:11:57;;;;;;;1.08;0.60;;;;;;;;;;10436729;28;20209;-73
2022/06/01 19:16:59;;;;;;;1.98;0.57;;;;;;;;;;10450413;28;21487;-73
2022/06/01 19:22:03;;;;;;;1.30;0.70;;;;;;;;;;10465611;28;20198;-73
2022/06/01 19:27:06;;;;;;;0.80;0.80;;;;;;;;;;10461730;28;20199;-73
2022/06/01 19:32:08;;;;;;;0.80;0.80;;;;;;;;;;10456121;28;20226;-72
2022/06/01 19:47:50;;;;;;;1.38;1.38;;;;;;;;;;10461250;28;20219;-72
2022/06/01 19:52:51;;;;;;;0.90;0.90;;;;;;;;;;10459089;28;20210;-72
2022/06/01 19:57:52;;;;;;;1.45;1.45;;;;;;;;;;10453061;28;20210;-72
2022/06/01 20:02:54;;;;;;;1.30;1.30;;;;;;;;;;10454406;28;20224;-72
2022/06/01 20:07:55;;;;;;;1.52;1.52;;;;;;;;;;10434845;28;20238;-72
2022/06/01 20:13:14;;;;;;;1.40;1.40;;;;;;;;;;10445307;28;20252;-71
2022/06/01 20:18:16;;;;;;;1.60;1.52;;;;;;;;;;10455473;28;20216;-75
2022/06/01 20:23:17;;;;;;;1.98;1.90;;;;;;;;;;10453861;28;20214;-76
2022/06/01 20:28:18;;;;;;;1.80;1.80;;;;;;;;;;10460167;28;20833;-76
2022/06/01 20:33:20;;;;;;;1.85;1.85;;;;;;;;;;10463235;28;20209;-76
2022/06/01 20:38:22;;;;;;;1.80;1.70;;;;;;;;;;10446319;28;20276;-75
2022/06/01 20:43:23;;;;;;;1.90;1.85;;;;;;;;;;10460408;28;21003;-76
2022/06/01 20:48:24;;;;;;;1.85;1.85;;;;;;;;;;10456448;28;20275;-75
2022/06/01 20:53:25;;;;;;;1.65;1.65;;;;;;;;;;10461503;28;20201;-76
2022/06/01 20:58:27;;;;;;;1.70;1.70;;;;;;;;;;10452927;28;20229;-74
2022/06/01 21:03:28;;;;;;;2.17;1.52;;;;;;;;;;10440471;28;20226;-74
2022/06/01 21:08:29;;;;;;;1.50;1.50;;;;;;;;;;10440404;28;20230;-75
2022/06/01 21:13:30;;;;;;;1.23;1.23;;;;;;;;;;10464270;28;20207;-73
2022/06/01 21:18:33;;;;;;;1.80;1.70;;;;;;;;;;10463309;28;20214;-74
2022/06/01 21:23:34;;;;;;;1.50;1.50;;;;;;;;;;10456086;28;20860;-74
2022/06/01 21:28:36;;;;;;;1.80;1.80;;;;;;;;;;10446968;28;20206;-74
2022/06/01 21:33:38;;;;;;;1.83;1.77;;;;;;;;;;10418081;28;20275;-75
2022/06/01 21:38:40;;;;;;;1.88;1.88;;;;;;;;;;10443754;28;20217;-75
2022/06/01 21:43:41;;;;;;;2.28;2.17;;;;;;;;;;10451873;28;20210;-75
2022/06/01 21:48:42;;;;;;;1.90;1.90;;;;;;;;;;10456344;28;20204;-74
2022/06/01 21:53:43;;;;;;;2.28;2.25;;;;;;;;;;10455242;28;20237;-75
2022/06/01 21:58:44;;;;;;;2.15;2.15;;;;;;;;;;10460839;28;20206;-75
2022/06/01 22:03:45;;;;;;;2.55;2.47;;;;;;;;;;10466575;28;20226;-74
2022/06/01 22:08:47;;;;;;;2.70;2.60;;;;;;;;;;10458826;28;20286;-75
2022/06/01 22:13:48;;;;;;;2.30;2.30;;;;;;;;;;10458442;28;20206;-75
2022/06/01 22:18:51;;;;;;;2.55;2.45;;;;;;;;;;10447015;28;20214;-74
2022/06/01 22:23:53;;;;;;;2.47;2.47;;;;;;;;;;10460276;28;20202;-74
2022/06/01 22:28:54;;;;;;;2.53;2.47;;;;;;;;;;10451479;28;20236;-75
2022/06/01 22:33:55;;;;;;;2.95;2.75;;;;;;;;;;10450419;28;20312;-75
2022/06/01 22:38:56;;;;;;;2.15;2.15;;;;;;;;;;10434606;28;20344;-74
2022/06/01 22:44:01;;;;;;;2.55;2.50;;;;;;;;;;10447471;28;20229;-75
2022/06/01 22:49:03;;;;;;;2.42;2.42;;;;;;;;;;10469794;28;20210;-75
2022/06/01 22:54:04;;;;;;;2.80;2.70;;;;;;;;;;10466073;28;20212;-74
2022/06/01 22:59:05;;;;;;;2.90;2.83;;;;;;;;;;10459267;28;21200;-74
2022/06/01 23:04:08;;;;;;;3.53;3.35;;;;;;;;;;10451375;28;20253;-74
2022/06/01 23:09:09;;;;;;;3.10;3.10;;;;;;;;;;10433146;28;20222;-74
2022/06/01 23:14:10;;;;;;;3.58;3.50;;;;;;;;;;10429821;28;20742;-74
2022/06/01 23:19:11;;;;;;;3.47;3.38;;;;;;;;;;10435313;28;20307;-74
2022/06/01 23:24:12;;;;;;;4.03;3.83;;;;;;;;;;10449512;28;20218;-76
2022/06/01 23:29:28;;;;;;;4.40;4.30;;;;;;;;;;10457236;28;20225;-75
2022/06/01 23:34:42;;;;;;;4.45;4.28;;;;;;;;;;10458407;28;20218;-76
2022/06/01 23:40:06;;;;;;;4.88;4.60;;;;;;;;;;10464673;28;20232;-75
2022/06/01 23:45:22;;;;;;;4.53;4.32;;;;;;;;;;10452356;28;20190;-75
2022/06/01 23:50:31;;;;;;;4.22;4.13;;;;;;;;;;10436550;28;20199;-74
2022/06/01 23:55:46;;;;;;;5.32;5.10;;;;;;;;;;10416446;28;20221;-75
